Latest Weather Observations for Bankstown

IDN60901

Issued at 8:01 pm EDT Thursday 17 October 2019 (issued every 10 minutes, with the page automatically refreshed every 10 minutes)

About weather observations | Map of Sydney area stations | Latest observations for Sydney area | Other Formats
Station Details ID: 066137 Name: BANKSTOWN AIRPORT AWS Lat: -33.92 Lon: 150.98 Height: 7.2 m
Data from the previous 72 hours. | See also: Recent months at Bankstown
Date/Time
EDT
Temp
°C
App
Temp
°C
Dew
Point
°C
Rel
Hum
%
Delta-T
°C
Wind Press
QNH
hPa
Press
MSL
hPa
Rain since
9am
mm
Dir  Spd
km/h
Gust
km/h
Spd
kts
Gust
kts
17/08:00pm 18.7 12.1 -3.4 22 9.0 W 22 37 12 20 1011.7 1011.7 0.0
17/07:30pm 19.2 12.1 -4.3 20 9.4 W 24 37 13 20 1011.0 1011.0 0.0
17/07:00pm 20.0 12.8 -5.0 18 10.0 W 24 43 13 23 1010.2 1010.2 0.0
17/06:30pm 20.8 13.6 -5.1 17 10.4 W 24 48 13 26 1009.5 1009.5 0.0
17/06:01pm 21.4 11.7 -5.4 16 10.8 W 37 56 20 30 1008.8 1008.8 0.0
17/06:00pm 21.4 11.3 -6.3 15 10.9 W 39 56 21 30 1008.9 1008.9 0.0
17/05:30pm 21.9 13.0 -6.8 14 11.3 W 32 57 17 31 1008.3 1008.3 0.0
17/05:06pm 22.3 13.6 -5.6 15 11.3 W 32 54 17 29 1007.8 1007.8 0.0
17/05:00pm 22.6 14.0 -4.5 16 11.2 W 32 48 17 26 1007.8 1007.8 0.0
17/04:32pm 23.2 14.8 -2.4 18 11.1 W 32 54 17 29 1006.9 1006.9 0.0
17/04:30pm 23.7 15.7 0.1 21 10.8 W 32 48 17 26 1007.1 1007.1 0.0
17/04:03pm 24.0 16.7 2.2 24 10.4 W 30 48 16 26 1006.6 1006.6 0.0
17/04:00pm 24.0 16.2 1.6 23 10.6 W 32 48 17 26 1006.6 1006.6 0.0
17/03:30pm 24.1 15.9 0.4 21 10.9 WNW 33 59 18 32 1006.2 1006.2 0.0
17/03:00pm 25.6 17.4 2.9 23 11.1 W 35 61 19 33 1006.0 1006.0 0.0
17/02:30pm 26.4 19.2 3.0 22 11.5 W 30 50 16 27 1005.8 1005.8 0.0
17/02:04pm 26.3 19.3 4.1 24 11.1 W 30 52 16 28 1005.6 1005.6 0.0
17/02:00pm 27.0 19.5 3.5 22 11.7 W 32 48 17 26 1005.5 1005.5 0.0
17/01:40pm 27.2 20.0 4.9 24 11.4 W 32 50 17 27 1005.5 1005.5 0.0
17/01:30pm 26.9 20.8 4.6 24 11.3 WNW 26 37 14 20 1005.4 1005.4 0.0
17/01:15pm 27.6 21.2 5.2 24 11.5 W 28 46 15 25 1005.2 1005.2 0.0
17/01:00pm 27.5 21.8 5.1 24 11.5 WNW 24 37 13 20 1005.0 1005.0 0.0
17/12:30pm 27.5 21.3 6.3 26 11.1 W 28 50 15 27 1005.1 1005.1 0.0
17/12:29pm 27.6 21.6 6.9 27 11.0 W 28 50 15 27 1005.1 1005.1 0.0
17/12:00pm 26.9 24.6 10.6 36 9.2 W 13 28 7 15 1005.2 1005.2 0.0
17/11:30am 26.7 23.6 11.6 39 8.6 WSW 19 30 10 16 1005.6 1005.6 0.0
17/11:00am 25.5 23.9 12.7 45 7.4 W 13 22 7 12 1006.0 1006.0 0.0
17/10:30am 24.3 22.0 11.9 45 7.0 W 15 20 8 11 1006.4 1006.4 0.0
17/10:00am 22.6 20.8 12.0 51 6.0 SW 13 20 7 11 1006.5 1006.5 0.0
17/09:30am 21.7 20.2 13.1 58 4.9 W 13 17 7 9 1006.7 1006.7 0.0
17/09:00am 20.9 20.4 14.8 68 3.6 W 11 17 6 9 1006.7 1006.7 0.0
17/08:30am 19.8 19.6 13.5 67 3.6 WSW 7 11 4 6 1006.6 1006.6 0.0
17/08:00am 18.4 18.9 14.1 76 2.5 WSW 4 9 2 5 1006.8 1006.8 0.0
17/07:30am 17.1 18.0 14.0 82 1.8 ESE 2 9 1 5 1006.8 1006.8 0.0
17/07:00am 15.8 16.9 13.5 86 1.3 CALM 0 0 0 0 1006.6 1006.6 0.0
17/06:30am 15.6 15.8 12.9 84 1.5 E 4 9 2 5 1006.8 1006.8 0.0
17/06:00am 15.8 16.8 13.3 85 1.4 CALM 0 0 0 0 1006.5 1006.5 0.0
17/05:30am 15.7 15.6 13.2 85 1.4 NW 6 7 3 4 1006.8 1006.8 0.0
17/05:00am 16.3 16.2 14.0 86 1.3 W 7 11 4 6 1006.8 1006.8 0.0
17/04:30am 17.2 18.2 14.3 83 1.7 WSW 2 11 1 6 1006.8 1006.8 0.0
17/04:00am 17.0 18.3 14.1 83 1.7 CALM 0 0 0 0 1007.4 1007.4 0.0
17/03:30am 17.8 19.5 15.1 84 1.6 CALM 0 0 0 0 1007.6 1007.6 0.0
17/03:00am 18.3 18.3 15.2 82 1.8 WSW 9 13 5 7 1008.4 1008.4 0.0
17/02:30am 18.7 18.3 15.2 80 2.1 E 11 13 6 7 1007.9 1007.9 0.0
17/02:00am 18.7 18.0 15.4 81 1.9 SE 13 17 7 9 1008.2 1008.2 0.0
17/01:30am 18.3 18.3 14.2 77 2.4 SSE 7 7 4 4 1009.2 1009.2 0.0
17/01:00am 18.5 18.1 14.2 76 2.5 S 9 13 5 7 1009.7 1009.7 0.0
17/12:30am 19.1 19.6 15.0 77 2.4 WSW 6 9 3 5 1010.1 1010.1 0.0
17/12:00am 19.3 18.8 14.8 75 2.6 S 11 15 6 8 1009.2 1009.2 0.0
 
Date/Time
EDT
Temp
°C
App
Temp
°C
Dew
Point
°C
Rel
Hum
%
Delta-T
°C
Wind Press
QNH
hPa
Press
MSL
hPa
Rain since
9am
mm
Dir  Spd
km/h
Gust
km/h
Spd
kts
Gust
kts
16/11:30pm 19.7 20.2 12.7 64 3.9 NNE 2 9 1 5 1009.8 1009.8 0.0
16/11:00pm 21.1 19.9 12.8 59 4.7 E 11 15 6 8 1009.4 1009.4 0.0
16/10:30pm 19.6 18.3 10.0 54 5.1 SSE 7 9 4 5 1009.1 1009.1 0.0
16/10:00pm 20.0 18.7 10.1 53 5.3 NE 7 9 4 5 1008.8 1008.8 0.0
16/09:30pm 22.2 21.2 9.0 43 7.0 N 4 7 2 4 1008.9 1008.9 0.0
16/09:00pm 23.1 20.4 8.8 40 7.7 W 13 20 7 11 1009.4 1009.4 0.0
16/08:30pm 23.3 20.7 9.3 41 7.6 WSW 13 20 7 11 1009.5 1009.5 0.0
16/08:00pm 24.1 22.0 9.7 40 7.9 W 11 24 6 13 1010.0 1010.0 0.0
16/07:30pm 24.2 21.6 9.4 39 8.0 WNW 13 17 7 9 1009.4 1009.4 0.0
16/07:00pm 23.6 22.4 9.6 41 7.6 NNW 6 9 3 5 1009.1 1009.1 0.0
16/06:30pm 23.9 22.6 9.1 39 8.0 WNW 6 9 3 5 1008.3 1008.3 0.0
16/06:00pm 24.7 22.6 8.2 35 8.8 WNW 9 11 5 6 1008.3 1008.3 0.0
16/05:30pm 25.2 22.2 7.8 33 9.2 WSW 13 28 7 15 1008.6 1008.6 0.0
16/05:00pm 25.8 21.7 7.9 32 9.6 W 19 33 10 18 1009.0 1009.0 0.0
16/04:30pm 26.3 23.8 10.9 38 8.7 WSW 15 28 8 15 1009.2 1009.2 0.0
16/04:00pm 25.6 26.3 15.6 54 6.1 ENE 6 9 3 5 1009.0 1009.0 0.0
16/03:30pm 24.7 24.7 15.3 56 5.7 SSE 9 15 5 8 1009.2 1009.2 0.0
16/03:00pm 24.0 23.2 15.0 57 5.4 SE 13 19 7 10 1008.9 1008.9 0.0
16/02:30pm 24.2 22.6 15.1 56 5.4 SE 17 20 9 11 1008.7 1008.7 0.0
16/02:00pm 23.7 22.8 14.9 57 5.2 SE 13 17 7 9 1009.6 1009.6 0.0
16/01:30pm 23.8 23.0 15.0 57 5.3 ESE 13 20 7 11 1009.8 1009.8 0.0
16/01:00pm 23.8 23.3 14.8 57 5.4 E 11 17 6 9 1010.0 1010.0 0.0
16/12:30pm 23.9 23.5 15.1 58 5.3 NNE 11 17 6 9 1010.5 1010.5 0.0
16/12:00pm 23.3 23.5 14.6 58 5.2 NE 7 11 4 6 1011.0 1011.0 0.0
16/11:30am 22.7 22.7 14.3 59 4.9 ENE 7 15 4 8 1011.5 1011.5 0.0
16/11:00am 21.4 21.2 14.6 65 4.0 NW 9 13 5 7 1011.9 1011.9 0.0
16/10:30am 20.3 19.6 14.4 69 3.4 NNE 11 17 6 9 1012.1 1012.1 0.0
16/10:00am 19.1 19.3 14.8 76 2.5 WSW 7 11 4 6 1012.5 1012.5 0.0
16/09:50am 18.9 19.3 14.8 77 2.4 WNW 6 11 3 6 1012.7 1012.7 0.0
16/09:30am 18.1 18.2 14.0 77 2.3 SE 6 9 3 5 1012.6 1012.6 0.0
16/09:00am 17.8 17.7 14.9 83 1.7 SW 9 11 5 6 1012.7 1012.7 0.0
16/08:30am 17.5 17.7 14.6 83 1.7 SE 7 11 4 6 1012.7 1012.7 0.0
16/08:00am 17.3 17.4 15.5 89 1.1 SW 9 11 5 6 1012.8 1012.8 0.0
16/07:30am 17.1 17.5 15.4 90 1.0 SSW 7 11 4 6 1012.5 1012.5 0.0
16/07:00am 16.8 18.5 16.2 96 0.4 SE 2 7 1 4 1012.3 1012.3 0.0
16/06:30am 15.7 17.4 15.2 97 0.3 CALM 0 0 0 0 1011.9 1011.9 0.0
16/06:18am 15.5 17.1 15.0 97 0.3 CALM 0 0 0 0 1011.8 1011.8 0.0
16/06:00am 15.0 16.0 14.4 96 0.3 SW 2 7 1 4 1011.8 1011.8 0.0
16/05:34am 15.1 16.5 14.5 96 0.3 CALM 0 0 0 0 1011.3 1011.3 0.0
16/05:30am 15.2 16.7 14.6 96 0.3 CALM 0 0 0 0 1011.3 1011.3 0.0
16/05:00am 15.1 15.4 14.5 96 0.3 SW 6 7 3 4 1011.2 1011.2 0.0
16/04:40am 15.2 15.3 14.4 95 0.5 SW 7 7 4 4 1010.9 1010.9 0.0
16/04:30am 15.2 16.2 14.4 95 0.5 SW 2 7 1 4 1010.8 1010.8 0.0
16/04:00am 15.5 17.1 14.9 96 0.3 CALM 0 0 0 0 1010.4 1010.4 0.0
16/03:30am 14.9 14.9 14.3 96 0.3 SSW 7 9 4 5 1010.2 1010.2 0.0
16/03:29am 15.0 15.1 14.4 96 0.3 SSW 7 9 4 5 1010.2 1010.2 0.0
16/03:04am 14.7 15.9 13.9 95 0.4 CALM 0 2 0 1 1009.9 1009.9 0.0
16/03:00am 14.9 16.2 14.1 95 0.5 CALM 0 0 0 0 1009.8 1009.8 0.0
16/02:44am 15.1 16.4 14.1 94 0.6 CALM 0 0 0 0 1009.7 1009.7 0.0
16/02:30am 15.3 15.9 14.3 94 0.6 SW 4 7 2 4 1009.7 1009.7 0.0
16/02:04am 15.7 17.2 14.7 94 0.6 CALM 0 0 0 0 1010.3 1010.3 0.0
16/02:00am 15.7 17.2 14.7 94 0.6 CALM 0 0 0 0 1010.3 1010.3 0.0
16/01:30am 15.7 17.2 14.6 93 0.6 CALM 0 0 0 0 1010.8 1010.8 0.0
16/01:29am 15.8 17.3 14.7 93 0.6 CALM 0 0 0 0 1010.8 1010.8 0.0
16/01:00am 16.3 18.0 15.2 93 0.6 CALM 0 0 0 0 1011.1 1011.1 0.0
16/12:30am 17.0 18.8 15.5 91 0.9 CALM 0 0 0 0 1011.2 1011.2 0.0
16/12:00am 17.4 19.4 16.1 92 0.8 CALM 0 0 0 0 1011.2 1011.2 0.0
 
Date/Time
EDT
Temp
°C
App
Temp
°C
Dew
Point
°C
Rel
Hum
%
Delta-T
°C
Wind Press
QNH
hPa
Press
MSL
hPa
Rain since
9am
mm
Dir  Spd
km/h
Gust
km/h
Spd
kts
Gust
kts
15/11:30pm 17.1 17.8 15.6 91 0.9 WSW 6 7 3 4 1011.2 1011.2 0.0
15/11:00pm 18.0 19.7 15.3 84 1.6 CALM 0 0 0 0 1010.9 1010.9 0.0
15/10:30pm 19.5 20.0 16.5 83 1.8 ENE 9 11 5 6 1011.0 1011.0 0.0
15/10:00pm 19.6 19.4 16.6 83 1.8 ESE 13 19 7 10 1011.3 1011.3 0.0
15/09:30pm 18.6 19.6 15.3 81 1.9 SE 4 7 2 4 1011.5 1011.5 0.0
15/09:00pm 19.8 20.4 15.7 77 2.4 E 7 9 4 5 1011.1 1011.1 0.0
15/08:30pm 20.4 20.8 16.2 77 2.5 E 9 11 5 6 1010.8 1010.8 0.0
15/08:00pm 20.7 21.4 16.1 75 2.8 ENE 7 11 4 6 1010.4 1010.4 0.0
15/07:30pm 21.1 21.0 15.9 72 3.1 ENE 11 15 6 8 1009.8 1009.8 0.0
15/07:00pm 21.9 20.8 15.3 66 3.9 ENE 15 22 8 12 1009.3 1009.3 0.0
15/06:30pm 23.0 21.3 14.6 59 5.0 ENE 17 24 9 13 1009.2 1009.2 0.0
15/06:00pm 23.8 21.3 13.6 52 6.0 ENE 19 26 10 14 1008.9 1008.9 0.0
15/05:30pm 24.3 21.0 12.9 49 6.6 ENE 22 30 12 16 1008.7 1008.7 0.0
15/05:00pm 25.6 21.3 12.1 43 7.8 ENE 26 37 14 20 1008.6 1008.6 0.0
15/04:30pm 26.0 22.7 12.8 44 7.7 ENE 22 30 12 16 1008.4 1008.4 0.0
15/04:00pm 26.4 21.3 10.5 37 8.9 E 28 39 15 21 1008.7 1008.7 0.0
15/03:30pm 26.5 21.4 10.6 37 8.9 ENE 28 35 15 19 1008.7 1008.7 0.0
15/03:00pm 26.7 21.8 11.2 38 8.8 ENE 28 39 15 21 1008.8 1008.8 0.0
15/02:30pm 26.5 21.5 11.0 38 8.8 E 28 37 15 20 1009.4 1009.4 0.0
15/02:00pm 27.1 22.5 11.2 37 9.1 ENE 26 35 14 19 1010.1 1010.1 0.0
15/01:30pm 26.7 23.5 12.0 40 8.5 ENE 20 30 11 16 1010.6 1010.6 0.0
15/01:00pm 26.0 23.3 11.7 41 8.2 ENE 17 26 9 14 1010.9 1010.9 0.0
15/12:30pm 26.2 24.2 11.5 40 8.4 NE 13 24 7 13 1011.1 1011.1 0.0
15/12:00pm 25.6 23.6 11.4 41 8.0 NE 13 26 7 14 1011.6 1011.6 0.0
15/11:30am 24.5 23.7 11.1 43 7.5 SSW 6 9 3 5 1012.2 1012.2 0.0
15/11:00am 22.7 21.6 12.0 50 6.0 SW 9 11 5 6 1012.8 1012.8 0.0
15/10:30am 21.7 22.5 12.5 56 5.2 CALM 0 0 0 0 1013.2 1013.2 0.0
15/10:00am 20.2 19.6 12.2 60 4.5 NNE 7 11 4 6 1013.5 1013.5 0.0
15/09:30am 18.6 19.8 13.7 73 2.8 CALM 0 6 0 3 1013.7 1013.7 0.0
15/09:00am 17.1 18.0 13.0 77 2.3 CALM 0 0 0 0 1013.7 1013.7 0.0
15/08:30am 15.9 16.7 12.5 80 1.9 CALM 0 0 0 0 1013.7 1013.7 0.0
15/08:00am 14.7 15.1 12.6 87 1.1 NW 2 7 1 4 1013.8 1013.8 0.0
15/07:30am 14.1 15.0 12.8 92 0.7 CALM 0 0 0 0 1013.7 1013.7 0.0
15/07:00am 13.0 13.6 11.9 93 0.6 CALM 0 0 0 0 1013.5 1013.5 0.0
15/06:30am 12.8 13.4 11.9 94 0.5 CALM 0 0 0 0 1013.4 1013.4 0.0
15/06:00am 13.0 13.6 11.9 93 0.6 CALM 0 0 0 0 1013.2 1013.2 0.0
15/05:30am 13.1 13.8 12.2 94 0.5 CALM 0 0 0 0 1013.0 1013.0 0.0
15/05:00am 13.1 13.8 12.2 94 0.5 CALM 0 0 0 0 1012.8 1012.8 0.0
15/04:30am 13.0 13.7 12.1 94 0.5 CALM 0 0 0 0 1012.9 1012.9 0.0
15/04:18am 12.8 13.4 11.9 94 0.5 CALM 0 0 0 0 1012.9 1012.9 0.0
15/04:00am 12.7 13.2 11.6 93 0.6 CALM 0 0 0 0 1012.8 1012.8 0.0
15/03:30am 13.1 13.7 11.8 92 0.7 CALM 0 0 0 0 1013.1 1013.1 0.0
15/03:00am 13.2 13.7 11.6 90 0.9 CALM 0 0 0 0 1013.1 1013.1 0.0
15/02:30am 13.6 14.2 11.8 89 1.0 CALM 0 0 0 0 1013.4 1013.4 0.0
15/02:00am 14.1 14.9 12.5 90 0.9 CALM 0 0 0 0 1013.7 1013.7 0.0
15/01:30am 14.7 15.5 12.4 86 1.3 CALM 0 0 0 0 1013.9 1013.9 0.0
15/01:00am 15.3 16.1 12.4 83 1.6 CALM 0 0 0 0 1014.1 1014.1 0.0
15/12:30am 16.0 16.8 12.7 81 1.8 CALM 0 0 0 0 1014.3 1014.3 0.0
15/12:00am 16.6 17.5 12.9 79 2.1 CALM 0 0 0 0 1014.4 1014.4 0.0
 
Date/Time
EDT
Temp
°C
App
Temp
°C
Dew
Point
°C
Rel
Hum
%
Delta-T
°C
Wind Press
QNH
hPa
Press
MSL
hPa
Rain since
9am
mm
Dir  Spd
km/h
Gust
km/h
Spd
kts
Gust
kts
14/11:30pm 17.8 18.8 13.1 74 2.6 CALM 0 0 0 0 1014.5 1014.5 0.0
14/11:00pm 17.6 18.6 13.1 75 2.5 CALM 0 0 0 0 1014.5 1014.5 0.0
14/10:30pm 18.1 18.7 13.2 73 2.8 NW 2 7 1 4 1014.7 1014.7 0.0
14/10:00pm 18.3 18.5 13.2 72 2.9 NNE 4 7 2 4 1014.9 1014.9 0.0
14/09:30pm 18.4 18.0 13.1 71 3.0 NE 7 13 4 7 1014.7 1014.7 0.0
14/09:00pm 18.6 17.9 13.2 71 3.0 ENE 9 13 5 7 1014.6 1014.6 0.0
14/08:30pm 18.8 18.0 13.0 69 3.3 E 9 13 5 7 1014.3 1014.3 0.0

Latest Capital City Observations: Canberra | Sydney | Melbourne | Brisbane | Adelaide | Perth | Hobart | Darwin

Other formats

Comma delimited format used in spreadsheet applications
http://www.bom.gov.au/fwo/IDN60901/IDN60901.94765.axf

JavaScript Object Notation format (JSON) in row-major order
http://www.bom.gov.au/fwo/IDN60901/IDN60901.94765.json

Data quality

Most of these data are generated automatically and are frequently updated. Quality checks on data are not normally performed. It is possible for incorrect values to appear. Refer to information at About Latest Weather Observations and please check the disclaimer before using these data.